createdAt,value
2024-05-09T00:02:24.711Z,10.84
2024-05-09T00:04:52.410Z,10.81
2024-05-09T00:07:20.087Z,10.79
2024-05-09T00:09:50.506Z,10.77
2024-05-09T00:12:18.054Z,10.74
2024-05-09T00:14:45.610Z,10.70
2024-05-09T00:17:13.262Z,10.69
2024-05-09T00:19:40.890Z,10.67
2024-05-09T00:22:08.593Z,10.61
2024-05-09T00:24:36.260Z,10.56
2024-05-09T00:27:04.437Z,10.49
2024-05-09T00:29:32.325Z,10.43
2024-05-09T00:32:00.146Z,10.34
2024-05-09T00:34:28.022Z,10.28
2024-05-09T00:36:55.673Z,10.23
2024-05-09T00:39:23.236Z,10.19
2024-05-09T00:41:50.746Z,10.16
2024-05-09T00:44:18.386Z,10.09
2024-05-09T00:46:45.922Z,10.02
2024-05-09T00:49:13.733Z,9.96
2024-05-09T00:51:41.733Z,9.89
2024-05-09T00:54:09.290Z,9.81
2024-05-09T00:56:36.885Z,9.76
2024-05-09T00:59:04.679Z,9.73
2024-05-09T01:01:32.471Z,9.68
2024-05-09T01:04:00.247Z,9.59
2024-05-09T01:06:27.845Z,9.53
2024-05-09T01:08:55.611Z,9.51
2024-05-09T01:11:23.238Z,9.52
2024-05-09T01:13:51.014Z,9.48
2024-05-09T01:16:18.725Z,9.48
2024-05-09T01:18:46.340Z,9.45
2024-05-09T01:21:14.146Z,9.40
2024-05-09T01:23:42.018Z,9.32
2024-05-09T01:26:09.646Z,9.27
2024-05-09T01:28:37.153Z,9.18
2024-05-09T01:31:04.824Z,9.10
2024-05-09T01:33:32.830Z,9.06
2024-05-09T01:36:00.726Z,9.03
2024-05-09T01:38:28.453Z,8.98
2024-05-09T01:40:56.094Z,8.94
2024-05-09T01:43:23.862Z,8.93
2024-05-09T01:45:51.470Z,8.88
2024-05-09T01:48:19.180Z,8.81
2024-05-09T01:50:46.776Z,8.76
2024-05-09T01:53:15.211Z,8.68
2024-05-09T01:55:43.655Z,8.61
2024-05-09T01:58:11.284Z,8.58
2024-05-09T02:00:42.177Z,8.52
2024-05-09T02:03:14.696Z,8.47
2024-05-09T02:05:45.724Z,8.44
2024-05-09T02:08:18.072Z,8.42
2024-05-09T02:10:47.604Z,8.40
2024-05-09T02:13:16.270Z,8.38
2024-05-09T02:15:44.109Z,8.36
2024-05-09T02:18:12.167Z,8.36
2024-05-09T02:20:41.174Z,8.31
2024-05-09T02:23:09.566Z,8.28
2024-05-09T02:25:37.408Z,8.23
2024-05-09T02:28:05.586Z,8.17
2024-05-09T02:30:39.282Z,8.12
2024-05-09T02:33:11.447Z,8.08
2024-05-09T02:35:41.608Z,8.03
2024-05-09T02:38:09.537Z,7.96
2024-05-09T02:40:39.206Z,7.92
2024-05-09T02:43:08.863Z,7.90
2024-05-09T02:45:38.353Z,7.86
2024-05-09T02:48:06.978Z,7.80
2024-05-09T02:50:38.987Z,7.77
2024-05-09T02:53:08.246Z,7.77
2024-05-09T02:55:36.874Z,7.75
2024-05-09T02:58:04.858Z,7.72
2024-05-09T03:00:39.104Z,7.69
2024-05-09T03:03:12.396Z,7.67
2024-05-09T03:05:43.535Z,7.66
2024-05-09T03:08:11.433Z,7.64
2024-05-09T03:10:39.891Z,7.61
2024-05-09T03:13:12.253Z,7.58
2024-05-09T03:15:40.643Z,7.52
2024-05-09T03:18:08.483Z,7.48
2024-05-09T03:20:37.054Z,7.44
2024-05-09T03:23:06.636Z,7.44
2024-05-09T03:25:34.611Z,7.43
2024-05-09T03:28:02.289Z,7.42
2024-05-09T03:30:39.074Z,7.38
2024-05-09T03:33:11.355Z,7.35
2024-05-09T03:35:39.144Z,7.33
2024-05-09T03:38:06.867Z,7.33
2024-05-09T03:40:34.469Z,7.31
2024-05-09T03:43:02.150Z,7.28
2024-05-09T03:45:29.692Z,7.28
2024-05-09T03:47:57.585Z,7.29
2024-05-09T03:50:30.396Z,7.32
2024-05-09T03:53:02.811Z,7.32
2024-05-09T03:55:30.706Z,7.34
2024-05-09T03:57:58.332Z,7.39
2024-05-09T04:00:34.402Z,7.46
2024-05-09T04:03:07.805Z,7.51
2024-05-09T04:05:39.347Z,7.56
2024-05-09T04:08:07.295Z,7.67
2024-05-09T04:10:35.572Z,7.75
2024-05-09T04:13:04.055Z,7.81
2024-05-09T04:15:32.319Z,7.87
2024-05-09T04:18:01.037Z,7.94
2024-05-09T04:20:37.276Z,8.00
2024-05-09T04:23:10.859Z,8.06
2024-05-09T04:25:41.163Z,8.14
2024-05-09T04:28:08.716Z,8.20
2024-05-09T04:30:39.603Z,8.27
2024-05-09T04:33:13.720Z,8.37
2024-05-09T04:35:43.345Z,8.47
2024-05-09T04:38:12.646Z,8.56
2024-05-09T04:40:40.275Z,8.64
2024-05-09T04:43:13.978Z,8.72
2024-05-09T04:45:41.596Z,8.78
2024-05-09T04:48:09.480Z,8.86
2024-05-09T04:50:39.255Z,8.95
2024-05-09T04:53:09.125Z,8.99
2024-05-09T04:55:38.781Z,9.05
2024-05-09T04:58:09.838Z,9.10
2024-05-09T05:00:41.338Z,9.21
2024-05-09T05:03:12.794Z,9.32
2024-05-09T05:05:44.483Z,9.41
2024-05-09T05:08:17.539Z,9.49
2024-05-09T05:10:46.882Z,9.60
2024-05-09T05:13:24.796Z,9.71
2024-05-09T05:15:55.171Z,9.80
2024-05-09T05:18:23.253Z,9.89
2024-05-09T05:20:51.312Z,9.99
2024-05-09T05:23:19.600Z,10.07
2024-05-09T05:25:52.526Z,10.17
2024-05-09T05:28:20.359Z,10.27
2024-05-09T05:30:47.955Z,10.38
2024-05-09T05:33:17.752Z,10.47
2024-05-09T05:35:45.399Z,10.55
2024-05-09T05:38:13.169Z,10.66
2024-05-09T05:40:41.274Z,10.75
2024-05-09T05:43:10.042Z,10.85
2024-05-09T05:45:38.623Z,10.96
2024-05-09T05:48:07.403Z,11.05
2024-05-09T05:50:37.620Z,11.15
2024-05-09T05:53:06.810Z,11.26
2024-05-09T05:55:35.190Z,11.35
2024-05-09T05:58:02.882Z,11.44
2024-05-09T06:00:37.819Z,11.52
2024-05-09T06:03:11.811Z,11.66
2024-05-09T06:05:40.705Z,11.79
2024-05-09T06:08:09.239Z,11.93
2024-05-09T06:10:39.880Z,12.11
2024-05-09T06:13:12.167Z,12.26
2024-05-09T06:15:40.184Z,12.37
2024-05-09T06:18:08.206Z,12.51
2024-05-09T06:20:38.031Z,12.63
2024-05-09T06:23:06.772Z,12.79
2024-05-09T06:25:35.604Z,12.99
2024-05-09T06:28:04.360Z,13.23
2024-05-09T06:30:38.624Z,13.48
2024-05-09T06:33:10.607Z,13.75
2024-05-09T06:35:39.936Z,13.98
2024-05-09T06:38:10.772Z,14.24
2024-05-09T06:40:40.816Z,14.61
2024-05-09T06:43:11.246Z,15.01
2024-05-09T06:45:39.364Z,15.34
2024-05-09T06:48:08.105Z,15.69
2024-05-09T06:50:38.199Z,16.20
2024-05-09T06:53:07.792Z,16.89
2024-05-09T06:55:36.028Z,17.56
2024-05-09T06:58:06.951Z,18.15
2024-05-09T07:00:39.375Z,18.50
2024-05-09T07:03:10.792Z,18.79
2024-05-09T07:05:39.693Z,19.34
2024-05-09T07:08:07.535Z,19.69
2024-05-09T07:10:36.370Z,19.98
2024-05-09T07:13:11.887Z,20.36
2024-05-09T07:15:40.190Z,20.61
2024-05-09T07:18:11.512Z,20.74
2024-05-09T07:20:40.113Z,21.06
2024-05-09T07:23:11.490Z,21.30
2024-05-09T07:25:39.821Z,21.48
2024-05-09T07:28:17.894Z,21.54
2024-05-09T07:30:45.544Z,21.57
2024-05-09T07:33:17.474Z,21.49
2024-05-09T07:35:45.305Z,21.46
2024-05-09T07:38:13.087Z,21.36
2024-05-09T07:40:41.426Z,21.19
2024-05-09T07:43:11.317Z,21.18
2024-05-09T07:45:48.648Z,21.34
2024-05-09T07:52:37.632Z,21.87
2024-05-09T07:53:47.909Z,22.05
2024-05-09T07:56:21.051Z,22.09
2024-05-09T07:58:50.776Z,22.07
2024-05-09T08:01:19.369Z,22.12
2024-05-09T08:03:50.013Z,22.21
2024-05-09T08:06:17.743Z,22.16
2024-05-09T08:08:47.068Z,22.08
2024-05-09T08:11:14.746Z,21.92
2024-05-09T08:13:42.227Z,21.94
2024-05-09T08:16:09.799Z,22.10
2024-05-09T08:18:37.527Z,22.09
2024-05-09T08:21:05.371Z,21.92
2024-05-09T08:23:32.888Z,21.84
2024-05-09T08:26:00.367Z,21.71
2024-05-09T08:28:28.320Z,21.51
2024-05-09T08:30:56.723Z,21.33
2024-05-09T08:33:24.577Z,21.11
2024-05-09T08:35:54.479Z,20.64
2024-05-09T08:38:22.119Z,20.54
2024-05-09T08:40:50.376Z,20.72
2024-05-09T08:43:19.269Z,20.73
2024-05-09T08:45:47.211Z,20.80
2024-05-09T08:48:16.083Z,20.75
2024-05-09T08:50:45.395Z,20.79
2024-05-09T08:53:14.985Z,20.80
2024-05-09T08:55:44.024Z,20.84
2024-05-09T08:58:16.734Z,20.82
2024-05-09T09:00:46.010Z,20.90
2024-05-09T09:03:18.513Z,21.09
2024-05-09T09:05:50.507Z,21.26
2024-05-09T09:08:18.113Z,21.32
2024-05-09T09:10:46.155Z,21.42
2024-05-09T09:13:13.719Z,21.32
2024-05-09T09:15:50.670Z,21.21
2024-05-09T09:18:18.851Z,21.33
2024-05-09T09:20:47.572Z,21.53
2024-05-09T09:23:15.294Z,21.69
2024-05-09T09:25:43.000Z,21.62
2024-05-09T09:28:12.122Z,21.48
2024-05-09T09:30:40.703Z,21.41
2024-05-09T09:33:08.816Z,21.73
2024-05-09T09:35:36.379Z,21.93
2024-05-09T09:38:05.648Z,22.01
2024-05-09T09:40:37.286Z,22.20
2024-05-09T09:43:11.855Z,22.53
2024-05-09T09:45:39.779Z,22.76
2024-05-09T09:48:07.836Z,22.85
2024-05-09T09:50:35.677Z,22.94
2024-05-09T09:53:03.869Z,22.97
2024-05-09T09:55:32.273Z,22.82
2024-05-09T09:58:00.027Z,22.76
2024-05-09T10:00:32.780Z,22.69
2024-05-09T10:03:02.049Z,22.75
2024-05-09T10:05:30.284Z,22.70
2024-05-09T10:07:58.526Z,22.73
2024-05-09T10:10:32.176Z,22.94
2024-05-09T10:13:07.404Z,23.18
2024-05-09T10:15:50.868Z,23.26
2024-05-09T10:18:28.025Z,23.49
2024-05-09T10:20:59.188Z,23.58
2024-05-09T10:23:28.488Z,23.55
2024-05-09T10:25:57.009Z,23.62
2024-05-09T10:28:28.256Z,23.64
2024-05-09T10:31:06.642Z,23.63
2024-05-09T10:33:38.556Z,23.48
2024-05-09T10:36:32.748Z,23.08
2024-05-09T10:39:00.425Z,22.87
2024-05-09T10:41:28.348Z,22.86
2024-05-09T10:43:55.966Z,22.78
2024-05-09T10:46:23.650Z,23.04
2024-05-09T10:48:52.221Z,23.36
2024-05-09T10:51:19.986Z,23.26
2024-05-09T10:53:47.780Z,23.43
2024-05-09T10:56:15.554Z,23.71
2024-05-09T10:58:43.251Z,23.73
2024-05-09T11:01:11.503Z,23.75
2024-05-09T11:03:39.787Z,23.88
2024-05-09T11:06:09.373Z,23.88
2024-05-09T11:08:36.962Z,24.06
2024-05-09T11:11:06.499Z,24.23
2024-05-09T11:13:34.886Z,24.07
2024-05-09T11:16:03.325Z,24.06
2024-05-09T11:18:35.127Z,24.10
2024-05-09T11:21:11.603Z,24.04
2024-05-09T11:23:39.150Z,24.06
2024-05-09T11:26:06.762Z,24.16
2024-05-09T11:28:34.451Z,24.23
2024-05-09T11:31:09.970Z,24.45
2024-05-09T11:33:42.490Z,24.59
2024-05-09T11:36:10.331Z,24.55
2024-05-09T11:38:37.880Z,24.73
2024-05-09T11:41:05.872Z,25.12
2024-05-09T11:43:33.679Z,25.47
2024-05-09T11:46:02.415Z,25.40
2024-05-09T11:48:30.651Z,25.44
2024-05-09T11:50:58.418Z,25.81
2024-05-09T11:53:26.032Z,25.95
2024-05-09T11:55:53.577Z,25.86
2024-05-09T11:58:22.473Z,26.11
2024-05-09T12:00:50.334Z,26.20
2024-05-09T12:03:18.168Z,26.10
2024-05-09T12:05:45.983Z,26.30
2024-05-09T12:08:13.967Z,26.62
2024-05-09T12:10:41.898Z,26.96
2024-05-09T12:13:09.638Z,26.79
2024-05-09T12:15:38.275Z,26.68
2024-05-09T12:18:07.574Z,26.75
2024-05-09T12:20:38.764Z,26.90
2024-05-09T12:23:08.837Z,27.14
2024-05-09T12:25:38.144Z,27.52
2024-05-09T12:28:05.935Z,27.75
2024-05-09T12:30:38.269Z,27.84
2024-05-09T12:33:12.458Z,28.19
2024-05-09T12:35:44.032Z,28.68
2024-05-09T12:38:14.486Z,29.12
2024-05-09T12:40:42.466Z,29.32
2024-05-09T12:43:11.389Z,29.44
2024-05-09T12:45:40.046Z,29.30
2024-05-09T12:48:10.825Z,29.33
2024-05-09T12:50:38.678Z,29.12
2024-05-09T12:53:06.253Z,28.32
2024-05-09T12:55:44.094Z,28.02
2024-05-09T12:58:17.670Z,27.88
2024-05-09T13:00:45.547Z,27.51
2024-05-09T13:03:13.553Z,27.53
2024-05-09T13:05:41.955Z,27.79
2024-05-09T13:08:09.898Z,28.18
2024-05-09T13:10:37.489Z,28.25
2024-05-09T13:13:05.229Z,28.52
2024-05-09T13:15:34.304Z,28.50
2024-05-09T13:18:03.651Z,28.47
2024-05-09T13:20:34.518Z,28.39
2024-05-09T13:23:04.663Z,28.24
2024-05-09T13:25:34.194Z,27.91
2024-05-09T13:28:02.814Z,27.53
2024-05-09T13:30:38.822Z,27.38
2024-05-09T13:33:11.241Z,27.27
2024-05-09T13:35:47.654Z,26.74
2024-05-09T13:38:19.071Z,26.35
2024-05-09T13:40:47.312Z,26.22
2024-05-09T13:43:15.579Z,26.04
2024-05-09T13:45:43.293Z,25.95
2024-05-09T13:48:11.140Z,25.87
2024-05-09T13:50:39.163Z,25.55
2024-05-09T13:53:08.191Z,25.07
2024-05-09T13:55:39.990Z,24.52
2024-05-09T13:58:08.533Z,24.11
2024-05-09T14:00:46.357Z,23.89
2024-05-09T14:03:18.430Z,23.72
2024-05-09T14:06:27.696Z,23.60
2024-05-09T14:08:55.310Z,23.40
2024-05-09T14:11:23.368Z,23.23
2024-05-09T14:13:50.919Z,23.13
2024-05-09T14:16:18.566Z,22.96
2024-05-09T14:18:46.318Z,22.86
2024-05-09T14:21:14.026Z,22.66
2024-05-09T14:23:41.707Z,22.40
2024-05-09T14:26:09.203Z,22.29
2024-05-09T14:28:36.917Z,22.32
2024-05-09T14:31:04.657Z,22.29
2024-05-09T14:33:32.682Z,22.17
2024-05-09T14:36:00.418Z,22.08
2024-05-09T14:38:28.115Z,22.09
2024-05-09T14:40:56.011Z,22.10
2024-05-09T14:43:23.731Z,22.01
2024-05-09T14:45:51.547Z,21.75
2024-05-09T14:48:19.946Z,21.63
2024-05-09T14:50:48.010Z,21.66
2024-05-09T14:53:15.678Z,21.68
2024-05-09T14:55:43.963Z,21.68
2024-05-09T14:58:12.677Z,21.66
2024-05-09T15:00:45.847Z,21.64
2024-05-09T15:03:21.358Z,21.54
2024-05-09T15:05:50.347Z,21.48
2024-05-09T15:08:19.294Z,21.50
2024-05-09T15:10:49.035Z,21.53
2024-05-09T15:13:19.223Z,21.54
2024-05-09T15:15:47.088Z,21.52
2024-05-09T15:18:14.804Z,21.46
2024-05-09T15:20:45.704Z,21.38
2024-05-09T15:23:13.711Z,21.29
2024-05-09T15:25:41.356Z,21.18
2024-05-09T15:28:09.597Z,21.08
2024-05-09T15:30:37.865Z,21.04
2024-05-09T15:33:07.117Z,20.98
2024-05-09T15:35:36.041Z,20.95
2024-05-09T15:38:04.821Z,20.94
2024-05-09T15:40:39.128Z,20.92
2024-05-09T15:43:09.767Z,20.89
2024-05-09T15:45:39.987Z,20.87
2024-05-09T15:48:08.754Z,20.81
2024-05-09T15:50:40.607Z,20.79
2024-05-09T15:53:10.968Z,20.73
2024-05-09T15:55:39.590Z,20.68
2024-05-09T15:58:07.736Z,20.66
2024-05-09T16:00:39.639Z,20.59
2024-05-09T16:03:10.796Z,20.53
2024-05-09T16:05:39.625Z,20.42
2024-05-09T16:08:07.577Z,20.35
2024-05-09T16:10:36.127Z,20.35
2024-05-09T16:13:04.284Z,20.32
2024-05-09T16:15:32.319Z,20.28
2024-05-09T16:18:00.333Z,20.22
2024-05-09T16:20:37.237Z,20.16
2024-05-09T16:23:08.754Z,20.10
2024-05-09T16:25:37.094Z,20.11
2024-05-09T16:28:08.598Z,20.12
2024-05-09T16:30:39.616Z,20.08
2024-05-09T16:33:09.287Z,20.05
2024-05-09T16:35:37.711Z,20.01
2024-05-09T16:38:05.727Z,19.92
2024-05-09T16:40:38.118Z,19.88
2024-05-09T16:43:09.479Z,19.85
2024-05-09T16:45:43.231Z,19.74
2024-05-09T16:48:11.282Z,19.67
2024-05-09T16:50:39.086Z,19.66
2024-05-09T16:53:07.225Z,19.63
2024-05-09T16:55:35.732Z,19.59
2024-05-09T16:58:04.460Z,19.55
2024-05-09T17:00:40.210Z,19.47
2024-05-09T17:03:14.262Z,19.39
2024-05-09T17:05:45.239Z,19.30
2024-05-09T17:08:15.514Z,19.22
2024-05-09T17:10:55.506Z,19.12
2024-05-09T17:13:23.725Z,19.04
2024-05-09T17:15:51.707Z,18.98
2024-05-09T17:18:19.472Z,18.94
2024-05-09T17:20:47.416Z,18.87
2024-05-09T17:23:15.146Z,18.83
2024-05-09T17:25:43.032Z,18.80
2024-05-09T17:28:11.222Z,18.74
2024-05-09T17:30:41.438Z,18.68
2024-05-09T17:33:11.593Z,18.62
2024-05-09T17:35:40.360Z,18.54
2024-05-09T17:38:08.106Z,18.46
2024-05-09T17:40:37.788Z,18.37
2024-05-09T17:43:09.281Z,18.29
2024-05-09T17:45:40.572Z,18.23
2024-05-09T17:48:10.790Z,18.17
2024-05-09T17:50:39.940Z,18.11
2024-05-09T17:53:07.945Z,18.04
2024-05-09T17:55:36.138Z,17.99
2024-05-09T17:58:04.758Z,17.91
2024-05-09T18:00:38.922Z,17.81
2024-05-09T18:03:13.707Z,17.71
2024-05-09T18:05:44.575Z,17.64
2024-05-09T18:08:13.375Z,17.59
2024-05-09T18:10:41.726Z,17.53
2024-05-09T18:13:10.468Z,17.45
2024-05-09T18:15:38.945Z,17.39
2024-05-09T18:18:07.513Z,17.32
2024-05-09T18:20:42.915Z,17.23
2024-05-09T18:23:14.823Z,17.16
2024-05-09T18:25:43.706Z,17.09
2024-05-09T18:28:11.458Z,16.99
2024-05-09T18:30:39.821Z,16.87
2024-05-09T18:33:09.596Z,16.74
2024-05-09T18:35:37.366Z,16.64
2024-05-09T18:38:05.494Z,16.51
2024-05-09T18:40:36.584Z,16.40
2024-05-09T18:43:07.584Z,16.29
2024-05-09T18:45:37.688Z,16.20
2024-05-09T18:48:07.418Z,16.08
2024-05-09T18:50:38.958Z,15.96
2024-05-09T18:53:12.554Z,15.86
2024-05-09T18:55:41.625Z,15.76
2024-05-09T18:58:09.536Z,15.64
2024-05-09T19:00:40.030Z,15.52
2024-05-09T19:03:12.839Z,15.41
2024-05-09T19:05:43.859Z,15.28
2024-05-09T19:08:13.185Z,15.17
2024-05-09T19:10:41.199Z,15.06
2024-05-09T19:13:12.214Z,14.97
2024-05-09T19:15:42.546Z,14.88
2024-05-09T19:18:11.998Z,14.79
2024-05-09T19:20:39.986Z,14.69
2024-05-09T19:23:07.903Z,14.60
2024-05-09T19:25:36.125Z,14.49
2024-05-09T19:28:05.020Z,14.36
2024-05-09T19:30:38.927Z,14.23
2024-05-09T19:33:11.930Z,14.14
2024-05-09T19:35:41.472Z,14.08
2024-05-09T19:38:09.101Z,14.02
2024-05-09T19:40:36.954Z,13.97
2024-05-09T19:43:05.966Z,13.92
2024-05-09T19:45:35.162Z,13.87
2024-05-09T19:48:04.872Z,13.80
2024-05-09T19:50:40.951Z,13.70
2024-05-09T19:53:12.612Z,13.63
2024-05-09T19:55:41.251Z,13.56
2024-05-09T19:58:09.482Z,13.50
2024-05-09T20:00:39.610Z,13.40
2024-05-09T20:03:13.926Z,13.32
2024-05-09T20:05:43.559Z,13.24
2024-05-09T20:08:11.321Z,13.16
2024-05-09T20:10:39.083Z,13.07
2024-05-09T20:13:08.168Z,13.00
2024-05-09T20:15:37.384Z,12.91
2024-05-09T20:18:06.170Z,12.83
2024-05-09T20:20:39.070Z,12.75
2024-05-09T20:23:10.370Z,12.66
2024-05-09T20:25:38.030Z,12.60
2024-05-09T20:28:06.033Z,12.53
2024-05-09T20:30:34.777Z,12.47
2024-05-09T20:33:04.954Z,12.45
2024-05-09T20:35:34.102Z,12.44
2024-05-09T20:38:03.002Z,12.46
2024-05-09T20:40:35.522Z,12.44
2024-05-09T20:43:07.065Z,12.41
2024-05-09T20:45:35.300Z,12.38
2024-05-09T20:48:03.264Z,12.35
2024-05-09T20:50:37.883Z,12.29
2024-05-09T20:53:12.692Z,12.22
2024-05-09T20:55:41.588Z,12.17
2024-05-09T20:58:09.855Z,12.12
2024-05-09T21:00:41.557Z,12.03
2024-05-09T21:03:13.142Z,11.94
2024-05-09T21:05:42.081Z,11.83
2024-05-09T21:08:09.877Z,11.76
2024-05-09T21:10:37.945Z,11.72
2024-05-09T21:13:06.817Z,11.67
2024-05-09T21:15:35.639Z,11.62
2024-05-09T21:18:04.339Z,11.61
2024-05-09T21:20:33.998Z,11.58
2024-05-09T21:23:02.264Z,11.49
2024-05-09T21:25:30.698Z,11.40
2024-05-09T21:27:58.345Z,11.34
2024-05-09T21:30:33.080Z,11.30
2024-05-09T21:33:09.281Z,11.26
2024-05-09T21:35:38.141Z,11.21
2024-05-09T21:38:06.829Z,11.17
2024-05-09T21:40:36.217Z,11.19
2024-05-09T21:43:05.825Z,11.22
2024-05-09T21:45:34.021Z,11.22
2024-05-09T21:48:05.597Z,11.21
2024-05-09T21:50:39.691Z,11.17
2024-05-09T21:53:10.709Z,11.16
2024-05-09T21:55:38.457Z,11.18
2024-05-09T21:58:06.191Z,11.14
2024-05-09T22:00:37.988Z,11.07
2024-05-09T22:03:07.483Z,11.03
2024-05-09T22:05:37.115Z,10.99
2024-05-09T22:08:05.405Z,10.94
2024-05-09T22:10:35.585Z,10.89
2024-05-09T22:13:05.862Z,10.85
2024-05-09T22:15:34.990Z,10.82
2024-05-09T22:18:02.792Z,10.83
2024-05-09T22:20:36.819Z,10.82
2024-05-09T22:23:07.663Z,10.76
2024-05-09T22:25:36.315Z,10.74
2024-05-09T22:28:04.436Z,10.71
2024-05-09T22:30:37.054Z,10.65
2024-05-09T22:33:08.280Z,10.60
2024-05-09T22:35:36.864Z,10.55
2024-05-09T22:38:04.553Z,10.51
2024-05-09T22:40:42.392Z,10.43
2024-05-09T22:43:20.674Z,10.36
2024-05-09T22:45:50.123Z,10.32
2024-05-09T22:48:18.407Z,10.31
2024-05-09T22:50:46.049Z,10.35
2024-05-09T22:53:13.560Z,10.30
2024-05-09T22:55:41.593Z,10.27
2024-05-09T22:58:09.323Z,10.27
2024-05-09T23:00:37.103Z,10.21
2024-05-09T23:03:05.096Z,10.16
2024-05-09T23:05:33.120Z,10.14
2024-05-09T23:08:01.735Z,10.15
2024-05-09T23:10:35.571Z,10.17
2024-05-09T23:13:06.367Z,10.19
2024-05-09T23:15:34.530Z,10.18
2024-05-09T23:18:02.393Z,10.14
2024-05-09T23:20:36.884Z,10.06
2024-05-09T23:23:07.598Z,10.01
2024-05-09T23:25:36.142Z,9.96
2024-05-09T23:28:04.156Z,9.91
2024-05-09T23:30:37.679Z,9.83
2024-05-09T23:33:09.844Z,9.76
2024-05-09T23:35:38.532Z,9.72
2024-05-09T23:38:06.202Z,9.68
2024-05-09T23:40:38.736Z,9.69
2024-05-09T23:43:09.763Z,9.66
2024-05-09T23:45:37.876Z,9.64
2024-05-09T23:48:06.037Z,9.61
2024-05-09T23:50:36.901Z,9.57
2024-05-09T23:53:07.758Z,9.57
2024-05-09T23:55:36.884Z,9.58
2024-05-09T23:58:05.443Z,9.58
